sensor_id;sensor_type;location;lat;lon;timestamp;P1;durP1;ratioP1;P2;durP2;ratioP2
2129;SDS011;1071;52.544;13.374;2022-08-11T00:01:05;2.43;;;2.20;;
2129;SDS011;1071;52.544;13.374;2022-08-11T00:03:35;2.87;;;2.40;;
2129;SDS011;1071;52.544;13.374;2022-08-11T00:06:10;4.43;;;2.67;;
2129;SDS011;1071;52.544;13.374;2022-08-11T00:08:38;2.23;;;2.03;;
2129;SDS011;1071;52.544;13.374;2022-08-11T00:11:09;3.90;;;2.40;;
2129;SDS011;1071;52.544;13.374;2022-08-11T00:13:38;4.70;;;3.13;;
2129;SDS011;1071;52.544;13.374;2022-08-11T00:16:10;2.53;;;2.33;;
2129;SDS011;1071;52.544;13.374;2022-08-11T00:18:40;3.27;;;2.40;;
2129;SDS011;1071;52.544;13.374;2022-08-11T00:21:09;5.70;;;2.50;;
2129;SDS011;1071;52.544;13.374;2022-08-11T00:23:43;2.90;;;2.07;;
2129;SDS011;1071;52.544;13.374;2022-08-11T00:26:13;2.67;;;2.13;;
2129;SDS011;1071;52.544;13.374;2022-08-11T00:28:46;2.23;;;2.03;;
2129;SDS011;1071;52.544;13.374;2022-08-11T00:31:20;4.63;;;2.60;;
2129;SDS011;1071;52.544;13.374;2022-08-11T00:33:56;3.40;;;2.87;;
2129;SDS011;1071;52.544;13.374;2022-08-11T00:36:26;2.33;;;2.10;;
2129;SDS011;1071;52.544;13.374;2022-08-11T00:42:42;2.80;;;2.50;;
2129;SDS011;1071;52.544;13.374;2022-08-11T00:45:26;2.50;;;2.30;;
2129;SDS011;1071;52.544;13.374;2022-08-11T00:48:01;4.03;;;3.10;;
2129;SDS011;1071;52.544;13.374;2022-08-11T00:50:38;4.80;;;3.77;;
2129;SDS011;1071;52.544;13.374;2022-08-11T00:53:29;5.50;;;2.90;;
2129;SDS011;1071;52.544;13.374;2022-08-11T01:02:13;3.77;;;2.60;;
2129;SDS011;1071;52.544;13.374;2022-08-11T01:08:04;2.90;;;2.43;;
2129;SDS011;1071;52.544;13.374;2022-08-11T01:11:08;2.80;;;2.60;;
2129;SDS011;1071;52.544;13.374;2022-08-11T01:14:05;4.00;;;3.13;;
2129;SDS011;1071;52.544;13.374;2022-08-11T01:17:27;2.00;;;1.90;;
2129;SDS011;1071;52.544;13.374;2022-08-11T01:26:52;3.10;;;2.83;;
2129;SDS011;1071;52.544;13.374;2022-08-11T01:36:26;2.10;;;1.90;;
2129;SDS011;1071;52.544;13.374;2022-08-11T01:39:23;2.33;;;2.13;;
2129;SDS011;1071;52.544;13.374;2022-08-11T01:42:36;2.30;;;2.13;;
2129;SDS011;1071;52.544;13.374;2022-08-11T01:45:46;2.30;;;2.10;;
2129;SDS011;1071;52.544;13.374;2022-08-11T01:48:20;3.87;;;2.90;;
2129;SDS011;1071;52.544;13.374;2022-08-11T01:51:02;3.17;;;2.63;;
2129;SDS011;1071;52.544;13.374;2022-08-11T01:53:44;2.77;;;2.00;;
2129;SDS011;1071;52.544;13.374;2022-08-11T01:56:22;3.43;;;3.13;;
2129;SDS011;1071;52.544;13.374;2022-08-11T01:59:02;3.40;;;2.40;;
2129;SDS011;1071;52.544;13.374;2022-08-11T02:01:45;2.77;;;2.57;;
2129;SDS011;1071;52.544;13.374;2022-08-11T02:04:32;4.13;;;2.70;;
2129;SDS011;1071;52.544;13.374;2022-08-11T02:07:08;4.53;;;3.10;;
2129;SDS011;1071;52.544;13.374;2022-08-11T02:09:44;4.43;;;2.83;;
2129;SDS011;1071;52.544;13.374;2022-08-11T02:12:38;2.90;;;2.17;;
2129;SDS011;1071;52.544;13.374;2022-08-11T02:15:13;2.77;;;2.57;;
2129;SDS011;1071;52.544;13.374;2022-08-11T02:17:52;2.23;;;2.03;;
2129;SDS011;1071;52.544;13.374;2022-08-11T02:20:27;2.90;;;2.53;;
2129;SDS011;1071;52.544;13.374;2022-08-11T02:23:22;3.10;;;2.90;;
2129;SDS011;1071;52.544;13.374;2022-08-11T02:26:08;2.93;;;2.73;;
2129;SDS011;1071;52.544;13.374;2022-08-11T02:28:41;2.03;;;1.93;;
2129;SDS011;1071;52.544;13.374;2022-08-11T02:31:32;3.77;;;2.90;;
2129;SDS011;1071;52.544;13.374;2022-08-11T02:34:31;4.60;;;2.47;;
2129;SDS011;1071;52.544;13.374;2022-08-11T02:37:10;3.97;;;2.67;;
2129;SDS011;1071;52.544;13.374;2022-08-11T02:39:45;2.90;;;2.70;;
2129;SDS011;1071;52.544;13.374;2022-08-11T02:42:22;2.53;;;2.33;;
2129;SDS011;1071;52.544;13.374;2022-08-11T02:45:03;5.20;;;3.23;;
2129;SDS011;1071;52.544;13.374;2022-08-11T02:47:44;3.10;;;2.83;;
2129;SDS011;1071;52.544;13.374;2022-08-11T02:50:34;3.30;;;2.97;;
2129;SDS011;1071;52.544;13.374;2022-08-11T02:53:08;3.30;;;3.00;;
2129;SDS011;1071;52.544;13.374;2022-08-11T02:55:46;3.13;;;2.80;;
2129;SDS011;1071;52.544;13.374;2022-08-11T02:58:27;2.80;;;2.57;;
2129;SDS011;1071;52.544;13.374;2022-08-11T03:01:05;3.00;;;2.70;;
2129;SDS011;1071;52.544;13.374;2022-08-11T03:03:44;3.60;;;3.30;;
2129;SDS011;1071;52.544;13.374;2022-08-11T03:06:20;5.37;;;2.87;;
2129;SDS011;1071;52.544;13.374;2022-08-11T03:08:58;7.07;;;3.00;;
2129;SDS011;1071;52.544;13.374;2022-08-11T03:11:44;3.03;;;2.60;;
2129;SDS011;1071;52.544;13.374;2022-08-11T03:14:36;4.40;;;2.73;;
2129;SDS011;1071;52.544;13.374;2022-08-11T03:17:31;3.43;;;3.13;;
2129;SDS011;1071;52.544;13.374;2022-08-11T03:20:07;2.90;;;2.70;;
2129;SDS011;1071;52.544;13.374;2022-08-11T03:22:48;3.67;;;3.37;;
2129;SDS011;1071;52.544;13.374;2022-08-11T03:25:22;3.37;;;3.07;;
2129;SDS011;1071;52.544;13.374;2022-08-11T03:27:58;3.47;;;3.03;;
2129;SDS011;1071;52.544;13.374;2022-08-11T03:30:33;3.40;;;3.10;;
2129;SDS011;1071;52.544;13.374;2022-08-11T03:33:12;3.43;;;3.10;;
2129;SDS011;1071;52.544;13.374;2022-08-11T03:36:04;3.40;;;3.10;;
2129;SDS011;1071;52.544;13.374;2022-08-11T03:38:48;4.37;;;3.60;;
2129;SDS011;1071;52.544;13.374;2022-08-11T03:41:26;4.37;;;3.97;;
2129;SDS011;1071;52.544;13.374;2022-08-11T03:44:23;4.73;;;3.87;;
2129;SDS011;1071;52.544;13.374;2022-08-11T03:47:11;3.83;;;3.30;;
2129;SDS011;1071;52.544;13.374;2022-08-11T03:50:03;4.10;;;3.70;;
2129;SDS011;1071;52.544;13.374;2022-08-11T03:52:52;3.13;;;2.90;;
2129;SDS011;1071;52.544;13.374;2022-08-11T03:55:38;4.23;;;3.83;;
2129;SDS011;1071;52.544;13.374;2022-08-11T03:58:39;3.50;;;3.20;;
2129;SDS011;1071;52.544;13.374;2022-08-11T04:04:55;4.03;;;3.40;;
2129;SDS011;1071;52.544;13.374;2022-08-11T04:07:45;4.33;;;3.90;;
2129;SDS011;1071;52.544;13.374;2022-08-11T04:10:39;7.60;;;3.30;;
2129;SDS011;1071;52.544;13.374;2022-08-11T04:13:39;4.90;;;3.60;;
2129;SDS011;1071;52.544;13.374;2022-08-11T04:16:46;5.67;;;3.60;;
2129;SDS011;1071;52.544;13.374;2022-08-11T04:19:41;3.03;;;2.83;;
2129;SDS011;1071;52.544;13.374;2022-08-11T04:30:57;4.43;;;4.03;;
2129;SDS011;1071;52.544;13.374;2022-08-11T04:33:42;4.40;;;4.00;;
2129;SDS011;1071;52.544;13.374;2022-08-11T04:40:03;7.30;;;4.10;;
2129;SDS011;1071;52.544;13.374;2022-08-11T04:43:01;4.23;;;3.83;;
2129;SDS011;1071;52.544;13.374;2022-08-11T04:46:08;4.80;;;4.30;;
2129;SDS011;1071;52.544;13.374;2022-08-11T04:49:04;5.20;;;3.63;;
2129;SDS011;1071;52.544;13.374;2022-08-11T04:55:28;4.47;;;4.07;;
2129;SDS011;1071;52.544;13.374;2022-08-11T04:58:25;4.90;;;4.50;;
2129;SDS011;1071;52.544;13.374;2022-08-11T05:01:27;6.77;;;4.43;;
2129;SDS011;1071;52.544;13.374;2022-08-11T05:07:32;5.80;;;5.33;;
2129;SDS011;1071;52.544;13.374;2022-08-11T05:10:46;4.20;;;3.90;;
2129;SDS011;1071;52.544;13.374;2022-08-11T05:13:24;6.03;;;4.80;;
2129;SDS011;1071;52.544;13.374;2022-08-11T05:16:12;5.03;;;4.63;;
2129;SDS011;1071;52.544;13.374;2022-08-11T05:19:01;5.27;;;4.37;;
2129;SDS011;1071;52.544;13.374;2022-08-11T05:21:50;5.43;;;4.93;;
2129;SDS011;1071;52.544;13.374;2022-08-11T05:24:40;4.93;;;4.43;;
2129;SDS011;1071;52.544;13.374;2022-08-11T05:27:29;5.20;;;4.43;;
2129;SDS011;1071;52.544;13.374;2022-08-11T05:30:18;5.30;;;4.90;;
2129;SDS011;1071;52.544;13.374;2022-08-11T05:33:08;4.87;;;4.47;;
2129;SDS011;1071;52.544;13.374;2022-08-11T05:35:59;6.03;;;4.97;;
2129;SDS011;1071;52.544;13.374;2022-08-11T05:38:34;10.53;;;6.40;;
2129;SDS011;1071;52.544;13.374;2022-08-11T05:41:19;6.47;;;5.87;;
2129;SDS011;1071;52.544;13.374;2022-08-11T05:44:09;5.97;;;4.93;;
2129;SDS011;1071;52.544;13.374;2022-08-11T05:46:54;8.00;;;5.20;;
2129;SDS011;1071;52.544;13.374;2022-08-11T05:49:38;6.30;;;5.80;;
2129;SDS011;1071;52.544;13.374;2022-08-11T05:52:24;7.83;;;5.40;;
2129;SDS011;1071;52.544;13.374;2022-08-11T05:55:11;6.90;;;5.10;;
2129;SDS011;1071;52.544;13.374;2022-08-11T05:57:58;6.73;;;6.07;;
2129;SDS011;1071;52.544;13.374;2022-08-11T06:00:28;5.73;;;4.53;;
2129;SDS011;1071;52.544;13.374;2022-08-11T06:02:59;5.67;;;5.17;;
2129;SDS011;1071;52.544;13.374;2022-08-11T06:05:31;6.10;;;5.63;;
2129;SDS011;1071;52.544;13.374;2022-08-11T06:07:59;7.23;;;5.30;;
2129;SDS011;1071;52.544;13.374;2022-08-11T06:10:29;7.60;;;5.30;;
2129;SDS011;1071;52.544;13.374;2022-08-11T06:12:58;5.13;;;4.73;;
2129;SDS011;1071;52.544;13.374;2022-08-11T06:15:26;8.70;;;5.60;;
2129;SDS011;1071;52.544;13.374;2022-08-11T06:18:00;5.93;;;5.37;;
2129;SDS011;1071;52.544;13.374;2022-08-11T06:20:28;6.53;;;5.93;;
2129;SDS011;1071;52.544;13.374;2022-08-11T06:23:02;10.03;;;5.30;;
2129;SDS011;1071;52.544;13.374;2022-08-11T06:25:33;7.13;;;5.40;;
2129;SDS011;1071;52.544;13.374;2022-08-11T06:28:02;6.23;;;5.57;;
2129;SDS011;1071;52.544;13.374;2022-08-11T06:30:33;6.37;;;5.40;;
2129;SDS011;1071;52.544;13.374;2022-08-11T06:33:07;5.83;;;5.30;;
2129;SDS011;1071;52.544;13.374;2022-08-11T06:35:37;4.73;;;4.43;;
2129;SDS011;1071;52.544;13.374;2022-08-11T06:38:13;5.30;;;4.80;;
2129;SDS011;1071;52.544;13.374;2022-08-11T06:40:53;5.20;;;4.70;;
2129;SDS011;1071;52.544;13.374;2022-08-11T06:43:44;4.53;;;4.17;;
2129;SDS011;1071;52.544;13.374;2022-08-11T06:46:22;6.63;;;4.80;;
2129;SDS011;1071;52.544;13.374;2022-08-11T06:48:52;5.67;;;4.50;;
2129;SDS011;1071;52.544;13.374;2022-08-11T06:51:20;4.77;;;4.37;;
2129;SDS011;1071;52.544;13.374;2022-08-11T06:53:48;5.00;;;4.57;;
2129;SDS011;1071;52.544;13.374;2022-08-11T06:56:21;5.00;;;4.60;;
2129;SDS011;1071;52.544;13.374;2022-08-11T06:59:08;4.87;;;4.47;;
2129;SDS011;1071;52.544;13.374;2022-08-11T07:02:05;4.10;;;3.77;;
2129;SDS011;1071;52.544;13.374;2022-08-11T07:04:39;5.47;;;4.80;;
2129;SDS011;1071;52.544;13.374;2022-08-11T07:07:36;5.40;;;4.63;;
2129;SDS011;1071;52.544;13.374;2022-08-11T07:10:51;5.13;;;4.77;;
2129;SDS011;1071;52.544;13.374;2022-08-11T07:13:47;4.57;;;4.27;;
2129;SDS011;1071;52.544;13.374;2022-08-11T07:16:35;6.00;;;4.73;;
2129;SDS011;1071;52.544;13.374;2022-08-11T07:19:08;7.53;;;4.13;;
2129;SDS011;1071;52.544;13.374;2022-08-11T07:21:54;6.33;;;4.97;;
2129;SDS011;1071;52.544;13.374;2022-08-11T07:24:45;5.17;;;4.67;;
2129;SDS011;1071;52.544;13.374;2022-08-11T07:27:40;5.70;;;5.03;;
2129;SDS011;1071;52.544;13.374;2022-08-11T07:30:26;4.70;;;4.30;;
2129;SDS011;1071;52.544;13.374;2022-08-11T07:32:55;5.07;;;4.57;;
2129;SDS011;1071;52.544;13.374;2022-08-11T07:35:29;5.83;;;4.00;;
2129;SDS011;1071;52.544;13.374;2022-08-11T07:38:00;5.20;;;4.20;;
2129;SDS011;1071;52.544;13.374;2022-08-11T07:40:30;4.70;;;4.30;;
2129;SDS011;1071;52.544;13.374;2022-08-11T07:42:59;5.10;;;4.30;;
2129;SDS011;1071;52.544;13.374;2022-08-11T07:45:29;4.80;;;4.10;;
2129;SDS011;1071;52.544;13.374;2022-08-11T07:48:14;4.27;;;3.60;;
2129;SDS011;1071;52.544;13.374;2022-08-11T07:51:01;5.40;;;3.80;;
2129;SDS011;1071;52.544;13.374;2022-08-11T07:53:46;5.77;;;4.77;;
2129;SDS011;1071;52.544;13.374;2022-08-11T07:56:20;4.83;;;4.43;;
2129;SDS011;1071;52.544;13.374;2022-08-11T07:58:51;5.90;;;5.30;;
2129;SDS011;1071;52.544;13.374;2022-08-11T08:01:37;5.37;;;4.33;;
2129;SDS011;1071;52.544;13.374;2022-08-11T08:04:21;4.77;;;4.37;;
2129;SDS011;1071;52.544;13.374;2022-08-11T08:07:06;4.57;;;4.27;;
2129;SDS011;1071;52.544;13.374;2022-08-11T08:09:51;4.77;;;4.37;;
2129;SDS011;1071;52.544;13.374;2022-08-11T08:12:36;9.93;;;4.80;;
2129;SDS011;1071;52.544;13.374;2022-08-11T08:15:22;4.60;;;3.60;;
2129;SDS011;1071;52.544;13.374;2022-08-11T08:18:07;8.97;;;4.33;;
2129;SDS011;1071;52.544;13.374;2022-08-11T08:20:38;4.80;;;4.30;;
2129;SDS011;1071;52.544;13.374;2022-08-11T08:23:14;4.37;;;4.00;;
2129;SDS011;1071;52.544;13.374;2022-08-11T08:25:57;5.20;;;3.70;;
2129;SDS011;1071;52.544;13.374;2022-08-11T08:28:25;4.03;;;3.73;;
2129;SDS011;1071;52.544;13.374;2022-08-11T08:30:54;6.07;;;4.30;;
2129;SDS011;1071;52.544;13.374;2022-08-11T08:33:32;5.37;;;3.90;;
2129;SDS011;1071;52.544;13.374;2022-08-11T08:36:01;5.17;;;4.13;;
2129;SDS011;1071;52.544;13.374;2022-08-11T08:38:47;5.73;;;3.80;;
2129;SDS011;1071;52.544;13.374;2022-08-11T08:41:18;4.93;;;3.87;;
2129;SDS011;1071;52.544;13.374;2022-08-11T08:43:51;5.43;;;3.93;;
2129;SDS011;1071;52.544;13.374;2022-08-11T08:46:29;4.13;;;3.73;;
2129;SDS011;1071;52.544;13.374;2022-08-11T08:49:03;3.60;;;3.10;;
2129;SDS011;1071;52.544;13.374;2022-08-11T08:51:36;3.80;;;3.50;;
2129;SDS011;1071;52.544;13.374;2022-08-11T08:54:11;5.63;;;4.07;;
2129;SDS011;1071;52.544;13.374;2022-08-11T08:56:43;6.83;;;4.17;;
2129;SDS011;1071;52.544;13.374;2022-08-11T08:59:14;6.83;;;3.90;;
2129;SDS011;1071;52.544;13.374;2022-08-11T09:01:45;4.00;;;3.70;;
2129;SDS011;1071;52.544;13.374;2022-08-11T09:04:19;3.93;;;3.13;;
2129;SDS011;1071;52.544;13.374;2022-08-11T09:06:49;4.03;;;3.73;;
2129;SDS011;1071;52.544;13.374;2022-08-11T09:09:21;3.53;;;3.00;;
2129;SDS011;1071;52.544;13.374;2022-08-11T09:11:49;6.57;;;4.17;;
2129;SDS011;1071;52.544;13.374;2022-08-11T09:14:18;4.23;;;3.30;;
2129;SDS011;1071;52.544;13.374;2022-08-11T09:16:47;6.23;;;3.97;;
2129;SDS011;1071;52.544;13.374;2022-08-11T09:19:18;4.80;;;4.40;;
2129;SDS011;1071;52.544;13.374;2022-08-11T09:21:47;3.77;;;3.50;;
2129;SDS011;1071;52.544;13.374;2022-08-11T09:24:39;4.30;;;3.80;;
2129;SDS011;1071;52.544;13.374;2022-08-11T09:27:23;3.77;;;3.30;;
2129;SDS011;1071;52.544;13.374;2022-08-11T09:29:52;3.90;;;3.07;;
2129;SDS011;1071;52.544;13.374;2022-08-11T09:32:33;3.00;;;2.80;;
2129;SDS011;1071;52.544;13.374;2022-08-11T09:35:12;4.00;;;3.27;;
2129;SDS011;1071;52.544;13.374;2022-08-11T09:37:41;3.13;;;2.83;;
2129;SDS011;1071;52.544;13.374;2022-08-11T09:40:27;3.87;;;3.57;;
2129;SDS011;1071;52.544;13.374;2022-08-11T09:42:54;4.17;;;3.87;;
2129;SDS011;1071;52.544;13.374;2022-08-11T09:45:39;3.70;;;3.40;;
2129;SDS011;1071;52.544;13.374;2022-08-11T09:48:14;5.80;;;3.50;;
2129;SDS011;1071;52.544;13.374;2022-08-11T09:50:43;3.33;;;3.13;;
2129;SDS011;1071;52.544;13.374;2022-08-11T09:53:11;4.40;;;3.47;;
2129;SDS011;1071;52.544;13.374;2022-08-11T09:55:42;5.03;;;3.07;;
2129;SDS011;1071;52.544;13.374;2022-08-11T09:58:09;3.57;;;3.27;;
2129;SDS011;1071;52.544;13.374;2022-08-11T10:00:39;6.13;;;3.80;;
2129;SDS011;1071;52.544;13.374;2022-08-11T10:03:09;4.80;;;3.20;;
2129;SDS011;1071;52.544;13.374;2022-08-11T10:05:38;3.80;;;3.37;;
2129;SDS011;1071;52.544;13.374;2022-08-11T10:08:27;3.97;;;3.47;;
2129;SDS011;1071;52.544;13.374;2022-08-11T10:10:56;8.03;;;4.13;;
2129;SDS011;1071;52.544;13.374;2022-08-11T10:13:25;4.77;;;3.57;;
2129;SDS011;1071;52.544;13.374;2022-08-11T10:16:01;3.83;;;3.53;;
2129;SDS011;1071;52.544;13.374;2022-08-11T10:18:32;4.43;;;3.20;;
2129;SDS011;1071;52.544;13.374;2022-08-11T10:21:14;2.90;;;2.70;;
2129;SDS011;1071;52.544;13.374;2022-08-11T10:23:53;3.90;;;3.50;;
2129;SDS011;1071;52.544;13.374;2022-08-11T10:26:41;3.43;;;3.13;;
2129;SDS011;1071;52.544;13.374;2022-08-11T10:29:24;3.40;;;3.20;;
2129;SDS011;1071;52.544;13.374;2022-08-11T10:32:12;2.93;;;2.73;;
2129;SDS011;1071;52.544;13.374;2022-08-11T10:35:00;4.07;;;3.43;;
2129;SDS011;1071;52.544;13.374;2022-08-11T10:37:32;3.17;;;2.97;;
2129;SDS011;1071;52.544;13.374;2022-08-11T10:40:04;3.43;;;3.13;;
2129;SDS011;1071;52.544;13.374;2022-08-11T10:42:36;4.83;;;2.83;;
2129;SDS011;1071;52.544;13.374;2022-08-11T10:45:21;4.33;;;2.80;;
2129;SDS011;1071;52.544;13.374;2022-08-11T10:48:07;3.33;;;3.03;;
2129;SDS011;1071;52.544;13.374;2022-08-11T10:50:50;3.20;;;3.00;;
2129;SDS011;1071;52.544;13.374;2022-08-11T10:53:35;3.10;;;2.90;;
2129;SDS011;1071;52.544;13.374;2022-08-11T10:56:22;5.00;;;3.27;;
2129;SDS011;1071;52.544;13.374;2022-08-11T10:59:08;4.10;;;3.00;;
2129;SDS011;1071;52.544;13.374;2022-08-11T11:01:37;3.77;;;3.57;;
2129;SDS011;1071;52.544;13.374;2022-08-11T11:04:07;3.90;;;2.97;;
2129;SDS011;1071;52.544;13.374;2022-08-11T11:06:39;4.17;;;3.73;;
2129;SDS011;1071;52.544;13.374;2022-08-11T11:09:19;6.27;;;3.20;;
2129;SDS011;1071;52.544;13.374;2022-08-11T11:11:55;3.40;;;3.20;;
2129;SDS011;1071;52.544;13.374;2022-08-11T11:14:43;3.20;;;3.00;;
2129;SDS011;1071;52.544;13.374;2022-08-11T11:17:28;3.80;;;3.50;;
2129;SDS011;1071;52.544;13.374;2022-08-11T11:20:19;6.57;;;3.57;;
2129;SDS011;1071;52.544;13.374;2022-08-11T11:22:53;5.00;;;3.50;;
2129;SDS011;1071;52.544;13.374;2022-08-11T11:25:35;3.90;;;3.60;;
2129;SDS011;1071;52.544;13.374;2022-08-11T11:28:37;3.97;;;3.60;;
2129;SDS011;1071;52.544;13.374;2022-08-11T11:31:27;2.77;;;2.57;;
2129;SDS011;1071;52.544;13.374;2022-08-11T11:34:10;3.50;;;3.17;;
2129;SDS011;1071;52.544;13.374;2022-08-11T11:36:49;2.80;;;2.60;;
2129;SDS011;1071;52.544;13.374;2022-08-11T11:39:19;3.00;;;2.80;;
2129;SDS011;1071;52.544;13.374;2022-08-11T11:41:48;3.43;;;3.13;;
2129;SDS011;1071;52.544;13.374;2022-08-11T11:44:22;3.50;;;3.27;;
2129;SDS011;1071;52.544;13.374;2022-08-11T11:46:52;5.77;;;3.07;;
2129;SDS011;1071;52.544;13.374;2022-08-11T11:49:22;3.23;;;3.00;;
2129;SDS011;1071;52.544;13.374;2022-08-11T11:52:07;3.43;;;3.20;;
2129;SDS011;1071;52.544;13.374;2022-08-11T11:54:39;3.30;;;3.03;;
2129;SDS011;1071;52.544;13.374;2022-08-11T11:57:07;4.23;;;3.10;;
2129;SDS011;1071;52.544;13.374;2022-08-11T11:59:48;3.67;;;3.00;;
2129;SDS011;1071;52.544;13.374;2022-08-11T12:02:36;3.57;;;3.27;;
2129;SDS011;1071;52.544;13.374;2022-08-11T12:05:05;3.30;;;3.00;;
2129;SDS011;1071;52.544;13.374;2022-08-11T12:07:35;3.20;;;3.00;;
2129;SDS011;1071;52.544;13.374;2022-08-11T12:10:21;4.50;;;3.07;;
2129;SDS011;1071;52.544;13.374;2022-08-11T12:12:48;3.33;;;2.80;;
2129;SDS011;1071;52.544;13.374;2022-08-11T12:15:34;3.40;;;3.10;;
2129;SDS011;1071;52.544;13.374;2022-08-11T12:18:03;3.33;;;3.00;;
2129;SDS011;1071;52.544;13.374;2022-08-11T12:20:31;8.30;;;3.57;;
2129;SDS011;1071;52.544;13.374;2022-08-11T12:22:58;3.30;;;3.10;;
2129;SDS011;1071;52.544;13.374;2022-08-11T12:25:43;4.53;;;2.87;;
2129;SDS011;1071;52.544;13.374;2022-08-11T12:28:28;3.00;;;2.80;;
2129;SDS011;1071;52.544;13.374;2022-08-11T12:30:56;3.97;;;3.20;;
2129;SDS011;1071;52.544;13.374;2022-08-11T12:33:25;3.67;;;3.03;;
2129;SDS011;1071;52.544;13.374;2022-08-11T12:35:55;4.60;;;3.20;;
2129;SDS011;1071;52.544;13.374;2022-08-11T12:38:40;3.83;;;3.17;;
2129;SDS011;1071;52.544;13.374;2022-08-11T12:41:09;3.00;;;2.80;;
2129;SDS011;1071;52.544;13.374;2022-08-11T12:43:54;3.00;;;2.80;;
2129;SDS011;1071;52.544;13.374;2022-08-11T12:46:42;4.73;;;2.77;;
2129;SDS011;1071;52.544;13.374;2022-08-11T12:49:13;4.20;;;2.93;;
2129;SDS011;1071;52.544;13.374;2022-08-11T12:52:01;2.83;;;2.63;;
2129;SDS011;1071;52.544;13.374;2022-08-11T12:54:32;3.00;;;2.70;;
2129;SDS011;1071;52.544;13.374;2022-08-11T12:57:08;2.77;;;2.50;;
2129;SDS011;1071;52.544;13.374;2022-08-11T13:00:04;3.33;;;2.77;;
2129;SDS011;1071;52.544;13.374;2022-08-11T13:02:50;3.00;;;2.80;;
2129;SDS011;1071;52.544;13.374;2022-08-11T13:05:38;4.17;;;2.70;;
2129;SDS011;1071;52.544;13.374;2022-08-11T13:08:06;3.80;;;2.93;;
2129;SDS011;1071;52.544;13.374;2022-08-11T13:10:34;6.83;;;3.37;;
2129;SDS011;1071;52.544;13.374;2022-08-11T13:13:19;2.77;;;2.47;;
2129;SDS011;1071;52.544;13.374;2022-08-11T13:15:47;3.17;;;2.97;;
2129;SDS011;1071;52.544;13.374;2022-08-11T13:18:16;4.80;;;3.40;;
2129;SDS011;1071;52.544;13.374;2022-08-11T13:20:48;2.63;;;2.40;;
2129;SDS011;1071;52.544;13.374;2022-08-11T13:23:18;3.43;;;3.00;;
2129;SDS011;1071;52.544;13.374;2022-08-11T13:25:49;3.07;;;2.80;;
2129;SDS011;1071;52.544;13.374;2022-08-11T13:28:22;3.00;;;2.80;;
2129;SDS011;1071;52.544;13.374;2022-08-11T13:30:49;7.10;;;2.73;;
2129;SDS011;1071;52.544;13.374;2022-08-11T13:33:34;3.77;;;2.50;;
2129;SDS011;1071;52.544;13.374;2022-08-11T13:36:07;5.20;;;2.77;;
2129;SDS011;1071;52.544;13.374;2022-08-11T13:38:35;3.83;;;2.73;;
2129;SDS011;1071;52.544;13.374;2022-08-11T13:41:04;2.40;;;2.30;;
2129;SDS011;1071;52.544;13.374;2022-08-11T13:43:48;4.67;;;3.00;;
2129;SDS011;1071;52.544;13.374;2022-08-11T13:46:17;3.13;;;2.40;;
2129;SDS011;1071;52.544;13.374;2022-08-11T13:48:48;2.40;;;2.30;;
2129;SDS011;1071;52.544;13.374;2022-08-11T13:51:17;4.53;;;2.40;;
2129;SDS011;1071;52.544;13.374;2022-08-11T13:53:59;2.43;;;2.23;;
2129;SDS011;1071;52.544;13.374;2022-08-11T13:56:28;2.67;;;2.47;;
2129;SDS011;1071;52.544;13.374;2022-08-11T13:58:57;7.33;;;3.20;;
2129;SDS011;1071;52.544;13.374;2022-08-11T14:01:28;4.23;;;2.67;;
2129;SDS011;1071;52.544;13.374;2022-08-11T14:04:02;3.37;;;2.80;;
2129;SDS011;1071;52.544;13.374;2022-08-11T14:06:35;3.93;;;2.53;;
2129;SDS011;1071;52.544;13.374;2022-08-11T14:09:06;2.50;;;2.30;;
2129;SDS011;1071;52.544;13.374;2022-08-11T14:11:35;2.50;;;2.30;;
2129;SDS011;1071;52.544;13.374;2022-08-11T14:14:21;3.20;;;2.07;;
2129;SDS011;1071;52.544;13.374;2022-08-11T14:16:52;4.97;;;2.63;;
2129;SDS011;1071;52.544;13.374;2022-08-11T14:19:22;2.93;;;2.73;;
2129;SDS011;1071;52.544;13.374;2022-08-11T14:21:53;2.73;;;2.50;;
2129;SDS011;1071;52.544;13.374;2022-08-11T14:24:33;5.20;;;2.30;;
2129;SDS011;1071;52.544;13.374;2022-08-11T14:27:02;3.20;;;2.57;;
2129;SDS011;1071;52.544;13.374;2022-08-11T14:29:33;2.73;;;2.50;;
2129;SDS011;1071;52.544;13.374;2022-08-11T14:32:04;2.10;;;2.00;;
2129;SDS011;1071;52.544;13.374;2022-08-11T14:34:33;2.00;;;1.90;;
2129;SDS011;1071;52.544;13.374;2022-08-11T14:37:04;3.50;;;2.33;;
2129;SDS011;1071;52.544;13.374;2022-08-11T14:39:37;2.70;;;2.27;;
2129;SDS011;1071;52.544;13.374;2022-08-11T14:42:07;2.10;;;1.90;;
2129;SDS011;1071;52.544;13.374;2022-08-11T14:44:55;3.40;;;2.10;;
2129;SDS011;1071;52.544;13.374;2022-08-11T14:47:55;2.03;;;1.93;;
2129;SDS011;1071;52.544;13.374;2022-08-11T14:50:26;2.20;;;2.00;;
2129;SDS011;1071;52.544;13.374;2022-08-11T14:52:57;2.70;;;2.03;;
2129;SDS011;1071;52.544;13.374;2022-08-11T14:55:26;4.50;;;2.10;;
2129;SDS011;1071;52.544;13.374;2022-08-11T14:58:13;2.37;;;1.90;;
2129;SDS011;1071;52.544;13.374;2022-08-11T15:00:43;4.27;;;2.10;;
2129;SDS011;1071;52.544;13.374;2022-08-11T15:03:12;3.50;;;2.10;;
2129;SDS011;1071;52.544;13.374;2022-08-11T15:05:40;2.40;;;2.10;;
2129;SDS011;1071;52.544;13.374;2022-08-11T15:08:13;2.67;;;1.70;;
2129;SDS011;1071;52.544;13.374;2022-08-11T15:10:41;3.17;;;1.93;;
2129;SDS011;1071;52.544;13.374;2022-08-11T15:13:09;2.13;;;1.73;;
2129;SDS011;1071;52.544;13.374;2022-08-11T15:15:37;2.27;;;1.90;;
2129;SDS011;1071;52.544;13.374;2022-08-11T15:18:25;5.53;;;2.00;;
2129;SDS011;1071;52.544;13.374;2022-08-11T15:20:53;2.13;;;1.90;;
2129;SDS011;1071;52.544;13.374;2022-08-11T15:23:39;2.67;;;1.67;;
2129;SDS011;1071;52.544;13.374;2022-08-11T15:26:27;2.10;;;1.90;;
2129;SDS011;1071;52.544;13.374;2022-08-11T15:29:16;1.73;;;1.63;;
2129;SDS011;1071;52.544;13.374;2022-08-11T15:31:59;2.67;;;1.90;;
2129;SDS011;1071;52.544;13.374;2022-08-11T15:34:44;2.40;;;1.90;;
2129;SDS011;1071;52.544;13.374;2022-08-11T15:37:31;5.00;;;1.83;;
2129;SDS011;1071;52.544;13.374;2022-08-11T15:40:02;2.80;;;1.87;;
2129;SDS011;1071;52.544;13.374;2022-08-11T15:42:54;2.13;;;1.40;;
2129;SDS011;1071;52.544;13.374;2022-08-11T15:45:42;1.83;;;1.70;;
2129;SDS011;1071;52.544;13.374;2022-08-11T15:48:18;2.07;;;1.87;;
2129;SDS011;1071;52.544;13.374;2022-08-11T15:50:55;3.37;;;2.07;;
2129;SDS011;1071;52.544;13.374;2022-08-11T15:53:30;2.60;;;1.93;;
2129;SDS011;1071;52.544;13.374;2022-08-11T15:56:05;1.90;;;1.80;;
2129;SDS011;1071;52.544;13.374;2022-08-11T15:58:35;2.53;;;1.60;;
2129;SDS011;1071;52.544;13.374;2022-08-11T16:01:23;2.00;;;1.40;;
2129;SDS011;1071;52.544;13.374;2022-08-11T16:04:09;2.00;;;1.90;;
2129;SDS011;1071;52.544;13.374;2022-08-11T16:06:44;1.60;;;1.50;;
2129;SDS011;1071;52.544;13.374;2022-08-11T16:09:17;1.90;;;1.73;;
2129;SDS011;1071;52.544;13.374;2022-08-11T16:11:51;1.87;;;1.67;;
2129;SDS011;1071;52.544;13.374;2022-08-11T16:14:22;1.63;;;1.53;;
2129;SDS011;1071;52.544;13.374;2022-08-11T16:17:09;2.10;;;1.77;;
2129;SDS011;1071;52.544;13.374;2022-08-11T16:19:38;1.93;;;1.83;;
2129;SDS011;1071;52.544;13.374;2022-08-11T16:22:09;1.73;;;1.40;;
2129;SDS011;1071;52.544;13.374;2022-08-11T16:24:40;1.90;;;1.80;;
2129;SDS011;1071;52.544;13.374;2022-08-11T16:27:12;1.63;;;1.53;;
2129;SDS011;1071;52.544;13.374;2022-08-11T16:29:44;2.43;;;2.23;;
2129;SDS011;1071;52.544;13.374;2022-08-11T16:32:13;2.63;;;1.90;;
2129;SDS011;1071;52.544;13.374;2022-08-11T16:34:45;3.83;;;2.13;;
2129;SDS011;1071;52.544;13.374;2022-08-11T16:37:33;3.33;;;1.80;;
2129;SDS011;1071;52.544;13.374;2022-08-11T16:40:20;3.27;;;1.77;;
2129;SDS011;1071;52.544;13.374;2022-08-11T16:42:49;2.30;;;2.07;;
2129;SDS011;1071;52.544;13.374;2022-08-11T16:45:35;4.57;;;1.93;;
2129;SDS011;1071;52.544;13.374;2022-08-11T16:48:21;2.90;;;1.83;;
2129;SDS011;1071;52.544;13.374;2022-08-11T16:50:57;4.20;;;1.53;;
2129;SDS011;1071;52.544;13.374;2022-08-11T16:53:26;2.10;;;1.90;;
2129;SDS011;1071;52.544;13.374;2022-08-11T16:55:54;4.30;;;2.70;;
2129;SDS011;1071;52.544;13.374;2022-08-11T16:58:28;4.40;;;2.30;;
2129;SDS011;1071;52.544;13.374;2022-08-11T17:01:15;2.40;;;1.73;;